createdAt,value
2023-09-23T00:02:24.749Z,9.32
2023-09-23T00:04:51.525Z,11.65
2023-09-23T00:07:19.512Z,11.93
2023-09-23T00:09:46.102Z,13.95
2023-09-23T00:12:13.505Z,12.88
2023-09-23T00:14:40.128Z,10.45
2023-09-23T00:17:07.465Z,10.80
2023-09-23T00:19:35.720Z,10.40
2023-09-23T00:22:03.538Z,9.13
2023-09-23T00:24:31.041Z,11.98
2023-09-23T00:27:00.962Z,10.60
2023-09-23T00:29:30.033Z,11.20
2023-09-23T00:31:57.420Z,10.98
2023-09-23T00:34:24.657Z,11.38
2023-09-23T00:36:52.490Z,9.95
2023-09-23T00:39:19.238Z,15.73
2023-09-23T00:41:45.839Z,15.98
2023-09-23T00:44:12.509Z,18.08
2023-09-23T00:46:39.540Z,14.20
2023-09-23T00:49:08.293Z,17.55
2023-09-23T00:51:34.975Z,14.55
2023-09-23T00:54:02.481Z,18.33
2023-09-23T00:56:31.974Z,19.00
2023-09-23T00:58:59.320Z,16.30
2023-09-23T01:01:26.025Z,18.35
2023-09-23T01:03:53.903Z,19.52
2023-09-23T01:06:23.117Z,19.63
2023-09-23T01:08:52.153Z,18.70
2023-09-23T01:11:19.418Z,20.00
2023-09-23T01:13:46.707Z,21.23
2023-09-23T01:16:14.792Z,20.77
2023-09-23T01:18:46.671Z,16.98
2023-09-23T01:21:14.055Z,16.55
2023-09-23T01:23:40.781Z,14.93
2023-09-23T01:26:07.422Z,16.85
2023-09-23T01:28:35.020Z,20.48
2023-09-23T01:31:02.188Z,20.40
2023-09-23T01:33:29.858Z,22.13
2023-09-23T01:35:58.337Z,21.67
2023-09-23T01:40:54.728Z,21.38
2023-09-23T01:43:21.555Z,21.88
2023-09-23T01:45:48.496Z,25.50
2023-09-23T01:48:15.250Z,21.58
2023-09-23T01:50:42.918Z,24.90
2023-09-23T01:53:10.163Z,26.47
2023-09-23T01:55:38.379Z,23.65
2023-09-23T01:58:05.130Z,24.17
2023-09-23T02:00:33.544Z,23.05
2023-09-23T02:03:00.299Z,21.80
2023-09-23T02:05:30.471Z,22.13
2023-09-23T02:07:57.590Z,20.42
2023-09-23T02:10:27.991Z,22.13
2023-09-23T02:12:55.073Z,18.27
2023-09-23T02:15:21.754Z,20.10
2023-09-23T02:17:49.181Z,18.10
2023-09-23T02:20:21.258Z,18.02
2023-09-23T02:22:49.409Z,16.52
2023-09-23T02:25:16.547Z,18.90
2023-09-23T02:27:45.234Z,19.23
2023-09-23T02:30:12.485Z,18.42
2023-09-23T02:32:45.414Z,15.18
2023-09-23T02:35:13.619Z,27.58
2023-09-23T02:37:50.354Z,15.40
2023-09-23T02:40:18.608Z,16.77
2023-09-23T02:42:46.660Z,18.38
2023-09-23T02:45:15.300Z,16.92
2023-09-23T02:47:47.419Z,19.23
2023-09-23T02:50:16.002Z,20.30
2023-09-23T02:55:13.944Z,17.05
2023-09-23T02:57:42.477Z,20.27
2023-09-23T03:00:19.618Z,15.95
2023-09-23T03:02:49.697Z,18.25
2023-09-23T03:05:22.744Z,19.20
2023-09-23T03:07:50.867Z,17.02
2023-09-23T03:10:30.180Z,17.63
2023-09-23T03:13:03.583Z,17.55
2023-09-23T03:15:35.524Z,17.02
2023-09-23T03:18:03.600Z,17.80
2023-09-23T03:20:31.425Z,19.70
2023-09-23T03:22:58.270Z,18.08
2023-09-23T03:25:24.994Z,19.20
2023-09-23T03:27:53.540Z,19.80
2023-09-23T03:32:47.949Z,19.50
2023-09-23T03:35:18.755Z,18.00
2023-09-23T03:37:51.902Z,16.67
2023-09-23T03:40:25.734Z,17.88
2023-09-23T03:42:52.439Z,16.17
2023-09-23T03:45:19.341Z,17.02
2023-09-23T03:47:47.706Z,17.45
2023-09-23T03:50:15.534Z,18.50
2023-09-23T03:52:43.174Z,20.17
2023-09-23T03:55:12.454Z,18.77
2023-09-23T03:57:39.998Z,17.13
2023-09-23T04:00:21.269Z,16.23
2023-09-23T04:02:48.938Z,16.45
2023-09-23T04:05:16.415Z,16.83
2023-09-23T04:07:52.705Z,16.30
2023-09-23T04:10:29.612Z,17.92
2023-09-23T04:12:56.656Z,16.27
2023-09-23T04:15:23.658Z,17.05
2023-09-23T04:17:50.371Z,17.52
2023-09-23T04:20:17.121Z,16.05
2023-09-23T04:22:44.178Z,13.35
2023-09-23T04:25:12.063Z,13.90
2023-09-23T04:27:39.227Z,15.50
2023-09-23T04:30:10.723Z,15.68
2023-09-23T04:32:40.345Z,14.48
2023-09-23T04:35:14.106Z,13.52
2023-09-23T04:37:41.058Z,13.63
2023-09-23T04:40:12.661Z,13.55
2023-09-23T04:42:40.335Z,13.15
2023-09-23T04:45:09.043Z,15.27
2023-09-23T04:47:39.288Z,17.15
2023-09-23T04:50:07.043Z,12.75
2023-09-23T04:52:33.756Z,14.48
2023-09-23T04:55:00.936Z,14.35
2023-09-23T04:57:28.044Z,15.15
2023-09-23T04:59:55.878Z,13.63
2023-09-23T05:02:22.632Z,17.02
2023-09-23T05:04:54.382Z,19.92
2023-09-23T05:07:21.752Z,17.08
2023-09-23T05:09:48.542Z,18.35
2023-09-23T05:12:15.681Z,19.80
2023-09-23T05:14:43.875Z,18.25
2023-09-23T05:17:15.340Z,21.27
2023-09-23T05:19:43.451Z,21.35
2023-09-23T05:22:11.856Z,21.10
2023-09-23T05:24:39.496Z,26.20
2023-09-23T05:27:06.853Z,20.25
2023-09-23T05:29:33.608Z,18.92
2023-09-23T05:32:00.315Z,20.30
2023-09-23T05:34:26.911Z,20.30
2023-09-23T05:36:54.597Z,17.88
2023-09-23T05:39:21.323Z,18.95
2023-09-23T05:41:52.545Z,18.48
2023-09-23T05:44:20.210Z,18.98
2023-09-23T05:46:49.577Z,23.65
2023-09-23T05:49:16.626Z,25.13
2023-09-23T05:51:45.255Z,27.98
2023-09-23T05:54:12.275Z,25.90
2023-09-23T05:56:39.362Z,23.67
2023-09-23T05:59:08.610Z,25.80
2023-09-23T06:01:36.588Z,26.95
2023-09-23T06:04:05.101Z,29.02
2023-09-23T06:08:58.897Z,27.42
2023-09-23T06:11:25.665Z,26.83
2023-09-23T06:13:52.387Z,37.40
2023-09-23T06:16:19.045Z,31.52
2023-09-23T06:18:45.657Z,34.10
2023-09-23T06:21:12.367Z,34.95
2023-09-23T06:23:39.008Z,29.08
2023-09-23T06:26:07.369Z,37.60
2023-09-23T06:31:03.004Z,29.15
2023-09-23T06:33:30.565Z,31.38
2023-09-23T06:36:02.447Z,31.60
2023-09-23T06:38:29.616Z,29.67
2023-09-23T06:40:57.091Z,31.02
2023-09-23T06:43:23.765Z,34.15
2023-09-23T06:45:57.254Z,32.90
2023-09-23T06:48:25.104Z,32.00
2023-09-23T06:51:03.022Z,33.10
2023-09-23T06:53:30.548Z,28.83
2023-09-23T06:55:57.308Z,29.05
2023-09-23T06:58:24.237Z,29.50
2023-09-23T07:00:50.906Z,30.70
2023-09-23T07:03:17.682Z,30.25
2023-09-23T07:05:44.663Z,30.08
2023-09-23T07:08:11.762Z,33.03
2023-09-23T07:10:39.920Z,33.65
2023-09-23T07:13:08.794Z,32.13
2023-09-23T07:15:38.334Z,30.52
2023-09-23T07:18:06.137Z,35.20
2023-09-23T07:20:33.200Z,34.83
2023-09-23T07:23:00.946Z,39.63
2023-09-23T07:25:29.361Z,35.85
2023-09-23T07:27:58.385Z,36.08
2023-09-23T07:30:24.997Z,35.38
2023-09-23T07:32:51.571Z,39.78
2023-09-23T07:35:18.915Z,34.80
2023-09-23T07:37:46.131Z,39.35
2023-09-23T07:40:12.807Z,37.92
2023-09-23T07:42:39.397Z,39.28
2023-09-23T07:45:06.626Z,44.97
2023-09-23T07:47:33.410Z,42.42
2023-09-23T07:50:00.394Z,33.08
2023-09-23T07:52:27.120Z,36.05
2023-09-23T07:54:53.718Z,33.80
2023-09-23T07:57:20.317Z,36.70
2023-09-23T07:59:47.129Z,32.42
2023-09-23T08:02:13.913Z,28.50
2023-09-23T08:04:40.634Z,31.30
2023-09-23T08:07:07.932Z,32.25
2023-09-23T08:09:34.576Z,32.22
2023-09-23T08:12:01.141Z,31.20
2023-09-23T08:14:27.874Z,25.05
2023-09-23T08:16:54.692Z,26.50
2023-09-23T08:19:21.353Z,27.50
2023-09-23T08:21:47.953Z,26.45
2023-09-23T08:24:14.535Z,21.58
2023-09-23T08:26:41.243Z,22.25
2023-09-23T08:29:09.392Z,26.17
2023-09-23T08:31:36.061Z,24.08
2023-09-23T08:34:05.143Z,22.25
2023-09-23T08:36:32.740Z,28.23
2023-09-23T08:38:59.962Z,24.13
2023-09-23T08:41:27.082Z,23.08
2023-09-23T08:43:55.392Z,21.27
2023-09-23T08:46:22.838Z,22.85
2023-09-23T08:48:49.873Z,19.77
2023-09-23T08:51:20.489Z,23.15
2023-09-23T08:53:48.098Z,22.88
2023-09-23T08:56:14.883Z,22.63
2023-09-23T08:58:43.352Z,23.75
2023-09-23T09:01:11.151Z,22.15
2023-09-23T09:03:38.727Z,21.77
2023-09-23T09:06:16.418Z,20.25
2023-09-23T09:08:43.921Z,21.55
2023-09-23T09:11:11.187Z,22.50
2023-09-23T09:13:38.263Z,21.50
2023-09-23T09:16:08.301Z,22.73
2023-09-23T09:18:34.977Z,22.75
2023-09-23T09:21:02.094Z,21.77
2023-09-23T09:23:34.077Z,20.70
2023-09-23T09:26:00.965Z,24.00
2023-09-23T09:28:27.868Z,25.27
2023-09-23T09:30:59.363Z,19.35
2023-09-23T09:33:28.601Z,21.63
2023-09-23T09:35:58.524Z,23.27
2023-09-23T09:38:29.017Z,21.20
2023-09-23T09:41:05.896Z,26.90
2023-09-23T09:43:34.472Z,23.08
2023-09-23T09:46:09.462Z,21.85
2023-09-23T09:48:40.705Z,28.40
2023-09-23T09:51:08.456Z,23.83
2023-09-23T09:53:37.919Z,25.67
2023-09-23T09:56:08.331Z,17.27
2023-09-23T09:58:39.572Z,24.70
2023-09-23T10:01:13.080Z,22.30
2023-09-23T10:03:51.666Z,20.75
2023-09-23T10:06:23.806Z,21.38
2023-09-23T10:08:50.851Z,20.75
2023-09-23T10:11:18.265Z,21.23
2023-09-23T10:13:45.136Z,19.90
2023-09-23T10:16:18.915Z,24.17
2023-09-23T10:18:55.169Z,21.70
2023-09-23T10:21:23.175Z,22.60
2023-09-23T10:23:51.570Z,24.65
2023-09-23T10:26:20.349Z,19.98
2023-09-23T10:29:16.668Z,17.48
2023-09-23T10:31:43.319Z,21.80
2023-09-23T10:34:11.541Z,21.13
2023-09-23T10:36:38.330Z,16.83
2023-09-23T10:39:07.348Z,19.05
2023-09-23T10:41:36.270Z,18.88
2023-09-23T10:44:06.112Z,17.77
2023-09-23T10:46:33.051Z,16.73
2023-09-23T10:49:02.531Z,19.92
2023-09-23T10:51:29.805Z,16.45
2023-09-23T10:53:57.288Z,18.65
2023-09-23T10:56:24.137Z,20.38
2023-09-23T10:58:53.708Z,19.73
2023-09-23T11:01:22.211Z,16.45
2023-09-23T11:03:49.256Z,15.90
2023-09-23T11:06:17.719Z,16.38
2023-09-23T11:08:45.521Z,15.73
2023-09-23T11:11:13.946Z,14.43
2023-09-23T11:13:40.842Z,16.17
2023-09-23T11:16:11.308Z,13.38
2023-09-23T11:18:39.190Z,12.88
2023-09-23T11:21:06.366Z,17.48
2023-09-23T11:23:34.168Z,13.68
2023-09-23T11:26:01.195Z,10.95
2023-09-23T11:28:28.778Z,12.82
2023-09-23T11:30:56.964Z,14.48
2023-09-23T11:33:23.644Z,12.65
2023-09-23T11:35:50.378Z,12.73
2023-09-23T11:38:18.360Z,11.57
2023-09-23T11:40:47.048Z,12.80
2023-09-23T11:43:13.738Z,12.77
2023-09-23T11:45:43.519Z,10.25
2023-09-23T11:48:11.084Z,9.57
2023-09-23T11:50:38.583Z,11.30
2023-09-23T11:53:06.211Z,8.55
2023-09-23T11:55:34.347Z,10.03
2023-09-23T11:58:01.638Z,9.88
2023-09-23T12:00:30.025Z,8.60
2023-09-23T12:02:57.182Z,6.82
2023-09-23T12:05:30.441Z,9.90
2023-09-23T12:08:00.366Z,7.05
2023-09-23T12:10:28.791Z,8.38
2023-09-23T12:12:57.516Z,9.45
2023-09-23T12:15:24.935Z,7.72
2023-09-23T12:17:51.843Z,6.82
2023-09-23T12:20:19.901Z,7.60
2023-09-23T12:22:47.254Z,11.65
2023-09-23T12:25:13.880Z,6.60
2023-09-23T12:27:40.584Z,5.97
2023-09-23T12:30:07.816Z,6.75
2023-09-23T12:32:34.696Z,9.98
2023-09-23T12:35:01.436Z,5.32
2023-09-23T12:37:28.740Z,7.70
2023-09-23T12:39:57.059Z,8.13
2023-09-23T12:42:24.310Z,6.07
2023-09-23T12:44:51.022Z,8.50
2023-09-23T12:47:17.727Z,9.15
2023-09-23T12:49:45.212Z,5.20
2023-09-23T12:52:12.738Z,4.18
2023-09-23T12:54:39.473Z,6.25
2023-09-23T12:57:06.171Z,4.53
2023-09-23T12:59:32.841Z,9.60
2023-09-23T13:01:59.604Z,5.10
2023-09-23T13:04:26.607Z,4.22
2023-09-23T13:06:53.346Z,5.22
2023-09-23T13:09:20.149Z,4.18
2023-09-23T13:11:46.767Z,4.45
2023-09-23T13:14:13.478Z,5.55
2023-09-23T13:16:40.083Z,4.15
2023-09-23T13:19:06.736Z,6.28
2023-09-23T13:21:33.422Z,7.85
2023-09-23T13:24:00.475Z,5.22
2023-09-23T13:26:27.552Z,5.40
2023-09-23T13:28:54.633Z,3.78
2023-09-23T13:31:21.404Z,4.00
2023-09-23T13:33:48.203Z,7.13
2023-09-23T13:36:14.878Z,6.60
2023-09-23T13:38:42.938Z,6.63
2023-09-23T13:41:09.855Z,7.18
2023-09-23T13:43:36.449Z,6.15
2023-09-23T13:46:03.152Z,6.03
2023-09-23T13:48:30.350Z,3.67
2023-09-23T13:50:57.106Z,5.00
2023-09-23T13:53:23.749Z,2.70
2023-09-23T13:55:50.576Z,5.20
2023-09-23T13:58:17.147Z,4.55
2023-09-23T14:00:43.861Z,3.35
2023-09-23T14:03:10.489Z,4.13
2023-09-23T14:05:37.301Z,4.68
2023-09-23T14:08:04.221Z,4.70
2023-09-23T14:10:31.864Z,5.35
2023-09-23T14:12:58.450Z,5.67
2023-09-23T14:15:25.104Z,4.15
2023-09-23T14:17:51.744Z,5.13
2023-09-23T14:20:18.437Z,6.40
2023-09-23T14:22:47.099Z,3.47
2023-09-23T14:25:15.334Z,3.38
2023-09-23T14:27:42.353Z,3.42
2023-09-23T14:30:09.817Z,2.90
2023-09-23T14:32:36.599Z,2.90
2023-09-23T14:35:04.144Z,5.47
2023-09-23T14:37:33.762Z,2.75
2023-09-23T14:40:01.496Z,3.42
2023-09-23T14:42:28.424Z,3.35
2023-09-23T14:44:55.078Z,5.57
2023-09-23T14:47:21.831Z,5.13
2023-09-23T14:49:48.654Z,3.60
2023-09-23T14:52:15.383Z,3.33
2023-09-23T14:54:42.922Z,5.38
2023-09-23T14:57:09.688Z,3.72
2023-09-23T14:59:37.097Z,4.68
2023-09-23T15:02:05.066Z,4.70
2023-09-23T15:04:31.995Z,3.95
2023-09-23T15:07:00.676Z,2.17
2023-09-23T15:09:28.035Z,3.25
2023-09-23T15:11:54.765Z,3.90
2023-09-23T15:14:21.491Z,3.25
2023-09-23T15:16:50.764Z,4.13
2023-09-23T15:19:20.564Z,4.15
2023-09-23T15:21:47.313Z,4.30
2023-09-23T15:24:18.105Z,2.53
2023-09-23T15:26:45.300Z,3.05
2023-09-23T15:29:12.353Z,4.97
2023-09-23T15:31:39.024Z,3.03
2023-09-23T15:34:08.115Z,4.72
2023-09-23T15:36:34.682Z,6.47
2023-09-23T15:39:01.271Z,4.32
2023-09-23T15:41:27.924Z,2.70
2023-09-23T15:43:54.647Z,4.40
2023-09-23T15:46:21.317Z,4.13
2023-09-23T15:48:48.167Z,5.03
2023-09-23T15:51:16.293Z,4.78
2023-09-23T15:53:43.723Z,4.00
2023-09-23T15:56:10.778Z,6.07
2023-09-23T15:58:39.038Z,4.10
2023-09-23T16:01:09.268Z,4.03
2023-09-23T16:03:36.413Z,2.50
2023-09-23T16:06:03.781Z,3.13
2023-09-23T16:08:30.556Z,5.72
2023-09-23T16:10:57.211Z,4.10
2023-09-23T16:13:23.846Z,3.58
2023-09-23T16:15:50.759Z,3.75
2023-09-23T16:18:20.007Z,5.43
2023-09-23T16:20:48.684Z,8.02
2023-09-23T16:23:15.513Z,2.97
2023-09-23T16:25:42.272Z,5.22
2023-09-23T16:28:08.907Z,2.97
2023-09-23T16:30:35.658Z,1.63
2023-09-23T16:33:02.389Z,2.28
2023-09-23T16:35:29.121Z,3.95
2023-09-23T16:37:55.797Z,3.78
2023-09-23T16:40:22.818Z,2.70
2023-09-23T16:42:49.546Z,3.30
2023-09-23T16:45:16.562Z,2.42
2023-09-23T16:47:45.139Z,4.82
2023-09-23T16:50:12.199Z,8.65
2023-09-23T16:52:38.926Z,3.78
2023-09-23T16:55:05.830Z,1.45
2023-09-23T16:57:32.541Z,4.85
2023-09-23T16:59:59.137Z,2.78
2023-09-23T17:02:26.017Z,3.70
2023-09-23T17:04:52.682Z,3.72
2023-09-23T17:07:19.274Z,3.70
2023-09-23T17:09:46.002Z,5.15
2023-09-23T17:12:13.931Z,4.47
2023-09-23T17:14:40.800Z,2.40
2023-09-23T17:17:07.537Z,3.17
2023-09-23T17:19:34.534Z,4.15
2023-09-23T17:22:01.255Z,3.00
2023-09-23T17:24:29.713Z,2.92
2023-09-23T17:26:56.476Z,4.25
2023-09-23T17:29:23.239Z,4.32
2023-09-23T17:31:50.319Z,2.85
2023-09-23T17:34:17.100Z,3.55
2023-09-23T17:36:43.838Z,2.80
2023-09-23T17:39:12.078Z,2.70
2023-09-23T17:41:39.180Z,3.58
2023-09-23T17:44:07.145Z,5.07
2023-09-23T17:46:34.214Z,3.67
2023-09-23T17:49:00.934Z,6.90
2023-09-23T17:51:27.777Z,5.85
2023-09-23T17:53:54.423Z,4.22
2023-09-23T17:56:23.147Z,4.03
2023-09-23T17:58:50.350Z,3.85
2023-09-23T18:01:17.228Z,3.45
2023-09-23T18:03:44.148Z,3.88
2023-09-23T18:06:10.970Z,2.75
2023-09-23T18:08:37.652Z,2.33
2023-09-23T18:11:04.358Z,4.15
2023-09-23T18:13:31.003Z,5.13
2023-09-23T18:15:57.880Z,5.18
2023-09-23T18:18:27.891Z,5.38
2023-09-23T18:20:55.934Z,6.93
2023-09-23T18:23:22.783Z,9.30
2023-09-23T18:25:49.951Z,4.28
2023-09-23T18:28:16.660Z,3.63
2023-09-23T18:30:43.314Z,5.32
2023-09-23T18:33:10.072Z,6.07
2023-09-23T18:35:36.973Z,5.45
2023-09-23T18:38:03.897Z,4.82
2023-09-23T18:40:31.407Z,3.45
2023-09-23T18:42:58.076Z,3.78
2023-09-23T18:45:24.917Z,3.58
2023-09-23T18:48:00.599Z,5.50
2023-09-23T18:50:34.487Z,2.72
2023-09-23T18:53:01.426Z,5.47
2023-09-23T18:55:28.404Z,5.65
2023-09-23T18:57:55.092Z,5.63
2023-09-23T19:00:21.743Z,4.88
2023-09-23T19:02:49.374Z,6.07
2023-09-23T19:05:16.416Z,3.30
2023-09-23T19:07:43.011Z,5.38
2023-09-23T19:10:11.982Z,6.28
2023-09-23T19:12:39.166Z,4.88
2023-09-23T19:15:06.897Z,6.15
2023-09-23T19:17:33.707Z,4.85
2023-09-23T19:20:00.444Z,3.00
2023-09-23T19:22:27.050Z,3.30
2023-09-23T19:24:53.669Z,4.20
2023-09-23T19:27:20.445Z,4.97
2023-09-23T19:29:49.961Z,4.65
2023-09-23T19:32:16.889Z,7.05
2023-09-23T19:34:43.606Z,4.13
2023-09-23T19:37:11.106Z,4.88
2023-09-23T19:39:38.062Z,4.93
2023-09-23T19:42:05.311Z,4.05
2023-09-23T19:44:32.760Z,9.73
2023-09-23T19:47:01.751Z,4.57
2023-09-23T19:49:28.943Z,3.53
2023-09-23T19:51:56.480Z,4.68
2023-09-23T19:54:23.920Z,4.13
2023-09-23T19:56:50.882Z,5.85
2023-09-23T19:59:20.714Z,5.40
2023-09-23T20:01:48.243Z,6.05
2023-09-23T20:04:15.161Z,4.65
2023-09-23T20:06:42.653Z,7.38
2023-09-23T20:09:10.068Z,6.30
2023-09-23T20:11:37.113Z,5.97
2023-09-23T20:14:04.027Z,5.65
2023-09-23T20:16:30.740Z,8.43
2023-09-23T20:18:58.290Z,5.55
2023-09-23T20:21:24.910Z,5.68
2023-09-23T20:23:52.696Z,4.68
2023-09-23T20:26:21.138Z,5.90
2023-09-23T20:28:49.281Z,7.78
2023-09-23T20:31:16.720Z,8.55
2023-09-23T20:33:44.135Z,7.80
2023-09-23T20:36:10.926Z,6.93
2023-09-23T20:38:40.223Z,10.45
2023-09-23T20:41:07.827Z,5.85
2023-09-23T20:43:37.181Z,6.60
2023-09-23T20:46:04.683Z,11.63
2023-09-23T20:48:31.759Z,10.57
2023-09-23T20:50:58.449Z,7.45
2023-09-23T20:53:25.395Z,8.20
2023-09-23T20:55:52.044Z,7.03
2023-09-23T20:58:19.486Z,6.32
2023-09-23T21:00:46.201Z,11.23
2023-09-23T21:03:15.755Z,8.88
2023-09-23T21:05:43.723Z,10.15
2023-09-23T21:08:11.475Z,9.07
2023-09-23T21:10:38.566Z,7.90
2023-09-23T21:13:05.386Z,11.63
2023-09-23T21:15:32.399Z,7.50
2023-09-23T21:18:02.077Z,9.82
2023-09-23T21:20:29.211Z,9.95
2023-09-23T21:22:56.050Z,8.57
2023-09-23T21:25:23.612Z,7.75
2023-09-23T21:27:51.129Z,7.55
2023-09-23T21:30:17.774Z,11.98
2023-09-23T21:32:44.600Z,10.82
2023-09-23T21:35:12.459Z,7.65
2023-09-23T21:37:39.085Z,10.30
2023-09-23T21:40:09.675Z,10.27
2023-09-23T21:42:36.385Z,11.55
2023-09-23T21:45:03.178Z,9.85
2023-09-23T21:47:30.094Z,10.63
2023-09-23T21:49:56.867Z,10.07
2023-09-23T21:52:23.449Z,8.32
2023-09-23T21:54:50.124Z,13.80
2023-09-23T21:57:16.877Z,9.63
2023-09-23T21:59:44.319Z,8.55
2023-09-23T22:02:11.070Z,9.60
2023-09-23T22:04:38.709Z,9.02
2023-09-23T22:07:06.294Z,10.03
2023-09-23T22:09:33.471Z,7.85
2023-09-23T22:12:00.100Z,7.32
2023-09-23T22:14:27.953Z,7.18
2023-09-23T22:16:55.846Z,11.45
2023-09-23T22:19:22.591Z,11.05
2023-09-23T22:21:49.730Z,11.15
2023-09-23T22:24:17.988Z,10.48
2023-09-23T22:26:45.060Z,6.30
2023-09-23T22:29:13.631Z,10.13
2023-09-23T22:34:07.613Z,11.68
2023-09-23T22:36:34.306Z,8.55
2023-09-23T22:39:01.257Z,13.82
2023-09-23T22:41:32.467Z,10.13
2023-09-23T22:44:00.241Z,14.55
2023-09-23T22:46:27.645Z,14.25
2023-09-23T22:48:56.350Z,9.18
2023-09-23T22:51:22.978Z,12.07
2023-09-23T22:53:51.088Z,8.65
2023-09-23T22:59:56.493Z,12.07
2023-09-23T23:02:23.206Z,13.43
2023-09-23T23:04:53.183Z,12.02
2023-09-23T23:07:19.966Z,11.57
2023-09-23T23:09:49.166Z,13.77
2023-09-23T23:12:15.770Z,13.13
2023-09-23T23:14:42.408Z,15.02
2023-09-23T23:17:09.095Z,12.45
2023-09-23T23:19:35.949Z,14.38
2023-09-23T23:22:02.539Z,10.27
2023-09-23T23:24:29.145Z,10.02
2023-09-23T23:26:56.317Z,10.38
2023-09-23T23:29:25.129Z,15.48
2023-09-23T23:31:53.138Z,10.75
2023-09-23T23:34:20.821Z,11.60
2023-09-23T23:36:47.952Z,12.32
2023-09-23T23:39:15.222Z,14.30
2023-09-23T23:41:43.018Z,10.85
2023-09-23T23:45:21.160Z,11.73
2023-09-23T23:47:57.123Z,11.32
2023-09-23T23:50:39.474Z,13.10
2023-09-23T23:53:29.170Z,12.32
